sensor_id;sensor_type;location;lat;lon;timestamp;temperature;humidity
18426;DHT22;9340;48.756;9.226;2023-05-29T00:01:36;12.40;99.90
18426;DHT22;9340;48.756;9.226;2023-05-29T00:04:04;12.60;99.90
18426;DHT22;9340;48.756;9.226;2023-05-29T00:06:31;12.50;99.90
18426;DHT22;9340;48.756;9.226;2023-05-29T00:08:58;12.50;99.90
18426;DHT22;9340;48.756;9.226;2023-05-29T00:11:24;12.50;99.90
18426;DHT22;9340;48.756;9.226;2023-05-29T00:13:51;12.40;99.90
18426;DHT22;9340;48.756;9.226;2023-05-29T00:16:17;12.40;99.90
18426;DHT22;9340;48.756;9.226;2023-05-29T00:18:44;12.40;99.90
18426;DHT22;9340;48.756;9.226;2023-05-29T00:21:13;12.30;99.90
18426;DHT22;9340;48.756;9.226;2023-05-29T00:23:40;12.30;99.90
18426;DHT22;9340;48.756;9.226;2023-05-29T00:26:07;12.20;99.90
18426;DHT22;9340;48.756;9.226;2023-05-29T00:28:34;12.20;99.90
18426;DHT22;9340;48.756;9.226;2023-05-29T00:31:01;12.10;99.90
18426;DHT22;9340;48.756;9.226;2023-05-29T00:33:28;12.20;99.90
18426;DHT22;9340;48.756;9.226;2023-05-29T00:35:55;12.20;99.90
18426;DHT22;9340;48.756;9.226;2023-05-29T00:38:23;12.20;99.90
18426;DHT22;9340;48.756;9.226;2023-05-29T00:40:49;12.10;99.90
18426;DHT22;9340;48.756;9.226;2023-05-29T00:43:16;12.00;99.90
18426;DHT22;9340;48.756;9.226;2023-05-29T00:45:43;12.00;99.90
18426;DHT22;9340;48.756;9.226;2023-05-29T00:48:10;12.00;99.90
18426;DHT22;9340;48.756;9.226;2023-05-29T00:50:37;11.90;99.90
18426;DHT22;9340;48.756;9.226;2023-05-29T00:53:04;11.90;99.90
18426;DHT22;9340;48.756;9.226;2023-05-29T00:55:34;11.90;99.90
18426;DHT22;9340;48.756;9.226;2023-05-29T00:58:01;11.90;99.90
18426;DHT22;9340;48.756;9.226;2023-05-29T01:00:28;11.80;99.90
18426;DHT22;9340;48.756;9.226;2023-05-29T01:02:59;11.80;99.90
18426;DHT22;9340;48.756;9.226;2023-05-29T01:05:28;11.80;99.90
18426;DHT22;9340;48.756;9.226;2023-05-29T01:07:56;11.70;99.90
18426;DHT22;9340;48.756;9.226;2023-05-29T01:10:22;11.60;99.90
18426;DHT22;9340;48.756;9.226;2023-05-29T01:12:55;11.60;99.90
18426;DHT22;9340;48.756;9.226;2023-05-29T01:15:31;11.60;99.90
18426;DHT22;9340;48.756;9.226;2023-05-29T01:18:12;11.60;99.90
18426;DHT22;9340;48.756;9.226;2023-05-29T01:20:48;11.50;99.90
18426;DHT22;9340;48.756;9.226;2023-05-29T01:23:34;11.50;99.90
18426;DHT22;9340;48.756;9.226;2023-05-29T01:29:34;11.50;99.90
18426;DHT22;9340;48.756;9.226;2023-05-29T01:32:01;11.50;99.90
18426;DHT22;9340;48.756;9.226;2023-05-29T01:34:28;11.40;99.90
18426;DHT22;9340;48.756;9.226;2023-05-29T01:36:55;11.40;99.90
18426;DHT22;9340;48.756;9.226;2023-05-29T01:39:22;11.40;99.90
18426;DHT22;9340;48.756;9.226;2023-05-29T01:41:49;11.40;99.90
18426;DHT22;9340;48.756;9.226;2023-05-29T01:44:17;11.30;99.90
18426;DHT22;9340;48.756;9.226;2023-05-29T01:46:46;11.20;99.90
18426;DHT22;9340;48.756;9.226;2023-05-29T01:49:13;11.20;99.90
18426;DHT22;9340;48.756;9.226;2023-05-29T01:51:41;11.20;99.90
18426;DHT22;9340;48.756;9.226;2023-05-29T01:54:08;11.10;99.90
18426;DHT22;9340;48.756;9.226;2023-05-29T01:56:35;11.10;99.90
18426;DHT22;9340;48.756;9.226;2023-05-29T01:59:03;11.00;99.90
18426;DHT22;9340;48.756;9.226;2023-05-29T02:01:31;10.90;99.90
18426;DHT22;9340;48.756;9.226;2023-05-29T02:03:59;10.90;99.90
18426;DHT22;9340;48.756;9.226;2023-05-29T02:06:26;10.80;99.90
18426;DHT22;9340;48.756;9.226;2023-05-29T02:08:52;10.80;99.90
18426;DHT22;9340;48.756;9.226;2023-05-29T02:11:19;10.80;99.90
18426;DHT22;9340;48.756;9.226;2023-05-29T02:13:47;10.90;99.90
18426;DHT22;9340;48.756;9.226;2023-05-29T02:16:13;11.00;99.90
18426;DHT22;9340;48.756;9.226;2023-05-29T02:18:40;10.90;99.90
18426;DHT22;9340;48.756;9.226;2023-05-29T02:21:08;10.80;99.90
18426;DHT22;9340;48.756;9.226;2023-05-29T02:23:35;10.80;99.90
18426;DHT22;9340;48.756;9.226;2023-05-29T02:26:02;10.80;99.90
18426;DHT22;9340;48.756;9.226;2023-05-29T02:28:28;10.80;99.90
18426;DHT22;9340;48.756;9.226;2023-05-29T02:30:55;10.70;99.90
18426;DHT22;9340;48.756;9.226;2023-05-29T02:33:21;10.70;99.90
18426;DHT22;9340;48.756;9.226;2023-05-29T02:35:48;10.70;99.90
18426;DHT22;9340;48.756;9.226;2023-05-29T02:38:16;10.60;99.90
18426;DHT22;9340;48.756;9.226;2023-05-29T02:40:43;10.60;99.90
18426;DHT22;9340;48.756;9.226;2023-05-29T02:43:12;10.60;99.90
18426;DHT22;9340;48.756;9.226;2023-05-29T02:45:39;10.50;99.90
18426;DHT22;9340;48.756;9.226;2023-05-29T02:48:06;10.50;99.90
18426;DHT22;9340;48.756;9.226;2023-05-29T02:50:33;10.40;99.90
18426;DHT22;9340;48.756;9.226;2023-05-29T02:52:59;10.30;99.90
18426;DHT22;9340;48.756;9.226;2023-05-29T02:55:27;10.30;99.90
18426;DHT22;9340;48.756;9.226;2023-05-29T02:57:54;10.30;99.90
18426;DHT22;9340;48.756;9.226;2023-05-29T03:00:21;10.20;99.90
18426;DHT22;9340;48.756;9.226;2023-05-29T03:02:48;10.20;99.90
18426;DHT22;9340;48.756;9.226;2023-05-29T03:05:15;10.20;99.90
18426;DHT22;9340;48.756;9.226;2023-05-29T03:07:42;10.10;99.90
18426;DHT22;9340;48.756;9.226;2023-05-29T03:10:10;10.10;99.90
18426;DHT22;9340;48.756;9.226;2023-05-29T03:12:38;10.00;99.90
18426;DHT22;9340;48.756;9.226;2023-05-29T03:15:07;10.00;99.90
18426;DHT22;9340;48.756;9.226;2023-05-29T03:17:34;10.00;99.90
18426;DHT22;9340;48.756;9.226;2023-05-29T03:20:02;10.00;99.90
18426;DHT22;9340;48.756;9.226;2023-05-29T03:22:31;10.00;99.90
18426;DHT22;9340;48.756;9.226;2023-05-29T03:24:57;9.90;99.90
18426;DHT22;9340;48.756;9.226;2023-05-29T03:27:24;9.90;99.90
18426;DHT22;9340;48.756;9.226;2023-05-29T03:29:52;10.00;99.90
18426;DHT22;9340;48.756;9.226;2023-05-29T03:32:20;10.00;99.90
18426;DHT22;9340;48.756;9.226;2023-05-29T03:34:46;10.00;99.90
18426;DHT22;9340;48.756;9.226;2023-05-29T03:37:13;9.90;99.90
18426;DHT22;9340;48.756;9.226;2023-05-29T03:39:40;9.90;99.90
18426;DHT22;9340;48.756;9.226;2023-05-29T03:42:06;9.90;99.90
18426;DHT22;9340;48.756;9.226;2023-05-29T03:44:33;10.00;99.90
18426;DHT22;9340;48.756;9.226;2023-05-29T03:47:01;10.00;99.90
18426;DHT22;9340;48.756;9.226;2023-05-29T03:49:28;9.90;99.90
18426;DHT22;9340;48.756;9.226;2023-05-29T03:51:54;9.90;99.90
18426;DHT22;9340;48.756;9.226;2023-05-29T03:54:21;9.90;99.90
18426;DHT22;9340;48.756;9.226;2023-05-29T03:56:48;9.90;99.90
18426;DHT22;9340;48.756;9.226;2023-05-29T03:59:14;9.90;99.90
18426;DHT22;9340;48.756;9.226;2023-05-29T04:01:41;10.00;99.90
18426;DHT22;9340;48.756;9.226;2023-05-29T04:04:09;10.00;99.90
18426;DHT22;9340;48.756;9.226;2023-05-29T04:06:36;10.10;99.90
18426;DHT22;9340;48.756;9.226;2023-05-29T04:09:04;10.20;99.90
18426;DHT22;9340;48.756;9.226;2023-05-29T04:11:31;10.30;99.90
18426;DHT22;9340;48.756;9.226;2023-05-29T04:13:59;10.30;99.90
18426;DHT22;9340;48.756;9.226;2023-05-29T04:16:26;10.40;99.90
18426;DHT22;9340;48.756;9.226;2023-05-29T04:18:53;10.40;99.90
18426;DHT22;9340;48.756;9.226;2023-05-29T04:21:21;10.40;99.90
18426;DHT22;9340;48.756;9.226;2023-05-29T04:23:48;10.40;99.90
18426;DHT22;9340;48.756;9.226;2023-05-29T04:26:14;10.60;99.90
18426;DHT22;9340;48.756;9.226;2023-05-29T04:28:41;10.70;99.90
18426;DHT22;9340;48.756;9.226;2023-05-29T04:31:09;10.70;99.90
18426;DHT22;9340;48.756;9.226;2023-05-29T04:33:39;10.80;99.90
18426;DHT22;9340;48.756;9.226;2023-05-29T04:36:06;10.90;99.90
18426;DHT22;9340;48.756;9.226;2023-05-29T04:38:35;11.00;99.90
18426;DHT22;9340;48.756;9.226;2023-05-29T04:41:02;11.10;99.90
18426;DHT22;9340;48.756;9.226;2023-05-29T04:43:29;11.30;99.90
18426;DHT22;9340;48.756;9.226;2023-05-29T04:45:56;11.40;99.90
18426;DHT22;9340;48.756;9.226;2023-05-29T04:48:23;11.50;99.90
18426;DHT22;9340;48.756;9.226;2023-05-29T04:50:50;11.60;99.90
18426;DHT22;9340;48.756;9.226;2023-05-29T04:53:17;11.70;99.90
18426;DHT22;9340;48.756;9.226;2023-05-29T04:55:45;11.90;99.90
18426;DHT22;9340;48.756;9.226;2023-05-29T04:58:11;12.00;99.90
18426;DHT22;9340;48.756;9.226;2023-05-29T05:00:39;12.10;99.90
18426;DHT22;9340;48.756;9.226;2023-05-29T05:03:05;12.30;99.90
18426;DHT22;9340;48.756;9.226;2023-05-29T05:05:32;12.50;99.90
18426;DHT22;9340;48.756;9.226;2023-05-29T05:07:59;12.60;99.90
18426;DHT22;9340;48.756;9.226;2023-05-29T05:10:26;12.70;99.90
18426;DHT22;9340;48.756;9.226;2023-05-29T05:12:54;12.80;99.90
18426;DHT22;9340;48.756;9.226;2023-05-29T05:15:20;13.00;99.90
18426;DHT22;9340;48.756;9.226;2023-05-29T05:17:47;13.10;99.90
18426;DHT22;9340;48.756;9.226;2023-05-29T05:20:14;13.30;99.90
18426;DHT22;9340;48.756;9.226;2023-05-29T05:22:40;13.70;99.90
18426;DHT22;9340;48.756;9.226;2023-05-29T05:25:08;14.80;99.90
18426;DHT22;9340;48.756;9.226;2023-05-29T05:27:34;16.90;99.90
18426;DHT22;9340;48.756;9.226;2023-05-29T05:30:03;18.90;99.90
18426;DHT22;9340;48.756;9.226;2023-05-29T05:32:29;20.40;99.90
18426;DHT22;9340;48.756;9.226;2023-05-29T05:34:56;21.40;99.90
18426;DHT22;9340;48.756;9.226;2023-05-29T05:37:23;22.30;99.90
18426;DHT22;9340;48.756;9.226;2023-05-29T05:39:49;23.00;99.90
18426;DHT22;9340;48.756;9.226;2023-05-29T05:42:18;23.50;99.90
18426;DHT22;9340;48.756;9.226;2023-05-29T05:44:45;23.80;99.90
18426;DHT22;9340;48.756;9.226;2023-05-29T05:47:13;24.30;99.90
18426;DHT22;9340;48.756;9.226;2023-05-29T05:49:39;24.70;99.90
18426;DHT22;9340;48.756;9.226;2023-05-29T05:52:06;25.20;99.90
18426;DHT22;9340;48.756;9.226;2023-05-29T05:54:33;25.40;99.90
18426;DHT22;9340;48.756;9.226;2023-05-29T05:57:00;25.80;99.90
18426;DHT22;9340;48.756;9.226;2023-05-29T05:59:28;26.00;99.90
18426;DHT22;9340;48.756;9.226;2023-05-29T06:01:55;26.10;99.90
18426;DHT22;9340;48.756;9.226;2023-05-29T06:04:23;26.40;99.90
18426;DHT22;9340;48.756;9.226;2023-05-29T06:06:49;26.60;99.90
18426;DHT22;9340;48.756;9.226;2023-05-29T06:09:16;26.70;99.90
18426;DHT22;9340;48.756;9.226;2023-05-29T06:11:43;26.60;99.90
18426;DHT22;9340;48.756;9.226;2023-05-29T06:14:10;26.70;99.90
18426;DHT22;9340;48.756;9.226;2023-05-29T06:16:37;26.60;99.90
18426;DHT22;9340;48.756;9.226;2023-05-29T06:19:03;26.40;99.90
18426;DHT22;9340;48.756;9.226;2023-05-29T06:21:31;26.30;99.90
18426;DHT22;9340;48.756;9.226;2023-05-29T06:23:58;25.80;99.90
18426;DHT22;9340;48.756;9.226;2023-05-29T06:26:25;25.20;99.90
18426;DHT22;9340;48.756;9.226;2023-05-29T06:28:52;24.80;99.90
18426;DHT22;9340;48.756;9.226;2023-05-29T06:31:19;24.20;99.90
18426;DHT22;9340;48.756;9.226;2023-05-29T06:33:45;23.80;99.90
18426;DHT22;9340;48.756;9.226;2023-05-29T06:36:12;23.10;99.90
18426;DHT22;9340;48.756;9.226;2023-05-29T06:38:40;22.00;99.90
18426;DHT22;9340;48.756;9.226;2023-05-29T06:41:11;20.90;99.90
18426;DHT22;9340;48.756;9.226;2023-05-29T06:43:38;20.10;99.90
18426;DHT22;9340;48.756;9.226;2023-05-29T06:46:05;19.50;99.90
18426;DHT22;9340;48.756;9.226;2023-05-29T06:48:32;19.00;99.90
18426;DHT22;9340;48.756;9.226;2023-05-29T06:50:59;18.70;99.90
18426;DHT22;9340;48.756;9.226;2023-05-29T06:53:26;18.60;99.90
18426;DHT22;9340;48.756;9.226;2023-05-29T06:55:54;18.50;99.90
18426;DHT22;9340;48.756;9.226;2023-05-29T06:58:20;18.60;99.90
18426;DHT22;9340;48.756;9.226;2023-05-29T07:00:47;18.60;99.90
18426;DHT22;9340;48.756;9.226;2023-05-29T07:03:13;18.70;99.90
18426;DHT22;9340;48.756;9.226;2023-05-29T07:05:41;18.70;99.90
18426;DHT22;9340;48.756;9.226;2023-05-29T07:08:07;18.70;99.90
18426;DHT22;9340;48.756;9.226;2023-05-29T07:10:34;18.80;99.90
18426;DHT22;9340;48.756;9.226;2023-05-29T07:13:02;18.90;99.90
18426;DHT22;9340;48.756;9.226;2023-05-29T07:15:30;18.90;99.90
18426;DHT22;9340;48.756;9.226;2023-05-29T07:17:56;18.70;99.90
18426;DHT22;9340;48.756;9.226;2023-05-29T07:20:23;18.80;99.90
18426;DHT22;9340;48.756;9.226;2023-05-29T07:22:50;18.90;99.90
18426;DHT22;9340;48.756;9.226;2023-05-29T07:25:16;18.90;99.90
18426;DHT22;9340;48.756;9.226;2023-05-29T07:27:43;19.00;99.90
18426;DHT22;9340;48.756;9.226;2023-05-29T07:30:12;19.10;99.90
18426;DHT22;9340;48.756;9.226;2023-05-29T07:32:39;19.20;99.90
18426;DHT22;9340;48.756;9.226;2023-05-29T07:35:06;19.30;99.90
18426;DHT22;9340;48.756;9.226;2023-05-29T07:37:34;19.40;99.90
18426;DHT22;9340;48.756;9.226;2023-05-29T07:40:01;19.40;99.90
18426;DHT22;9340;48.756;9.226;2023-05-29T07:42:28;19.30;99.90
18426;DHT22;9340;48.756;9.226;2023-05-29T07:44:55;19.20;99.90
18426;DHT22;9340;48.756;9.226;2023-05-29T07:47:23;19.30;99.90
18426;DHT22;9340;48.756;9.226;2023-05-29T07:49:49;19.30;99.90
18426;DHT22;9340;48.756;9.226;2023-05-29T07:52:17;19.30;99.90
18426;DHT22;9340;48.756;9.226;2023-05-29T07:54:44;19.40;99.90
18426;DHT22;9340;48.756;9.226;2023-05-29T07:57:11;19.50;99.90
18426;DHT22;9340;48.756;9.226;2023-05-29T07:59:40;19.70;99.90
18426;DHT22;9340;48.756;9.226;2023-05-29T08:02:07;19.80;99.90
18426;DHT22;9340;48.756;9.226;2023-05-29T08:04:35;19.90;99.90
18426;DHT22;9340;48.756;9.226;2023-05-29T08:07:02;20.00;99.90
18426;DHT22;9340;48.756;9.226;2023-05-29T08:09:30;20.10;99.90
18426;DHT22;9340;48.756;9.226;2023-05-29T08:11:56;20.10;99.90
18426;DHT22;9340;48.756;9.226;2023-05-29T08:14:25;20.10;99.90
18426;DHT22;9340;48.756;9.226;2023-05-29T08:16:51;20.10;99.90
18426;DHT22;9340;48.756;9.226;2023-05-29T08:19:18;20.30;99.90
18426;DHT22;9340;48.756;9.226;2023-05-29T08:21:46;20.50;99.90
18426;DHT22;9340;48.756;9.226;2023-05-29T08:24:13;20.50;99.90
18426;DHT22;9340;48.756;9.226;2023-05-29T08:26:40;20.60;99.90
18426;DHT22;9340;48.756;9.226;2023-05-29T08:29:08;20.60;99.90
18426;DHT22;9340;48.756;9.226;2023-05-29T08:31:35;20.60;99.90
18426;DHT22;9340;48.756;9.226;2023-05-29T08:34:02;20.50;99.90
18426;DHT22;9340;48.756;9.226;2023-05-29T08:36:29;20.40;99.90
18426;DHT22;9340;48.756;9.226;2023-05-29T08:38:58;20.60;99.90
18426;DHT22;9340;48.756;9.226;2023-05-29T08:41:28;20.60;99.90
18426;DHT22;9340;48.756;9.226;2023-05-29T08:43:56;20.80;99.90
18426;DHT22;9340;48.756;9.226;2023-05-29T08:46:24;21.00;99.90
18426;DHT22;9340;48.756;9.226;2023-05-29T08:48:53;21.10;99.90
18426;DHT22;9340;48.756;9.226;2023-05-29T08:51:23;21.30;99.90
18426;DHT22;9340;48.756;9.226;2023-05-29T08:53:58;21.40;99.90
18426;DHT22;9340;48.756;9.226;2023-05-29T08:56:25;21.50;99.90
18426;DHT22;9340;48.756;9.226;2023-05-29T08:58:52;21.50;99.90
18426;DHT22;9340;48.756;9.226;2023-05-29T09:01:21;21.60;99.90
18426;DHT22;9340;48.756;9.226;2023-05-29T09:03:48;21.70;99.90
18426;DHT22;9340;48.756;9.226;2023-05-29T09:06:15;21.80;99.90
18426;DHT22;9340;48.756;9.226;2023-05-29T09:08:43;21.80;99.90
18426;DHT22;9340;48.756;9.226;2023-05-29T09:11:11;21.80;99.90
18426;DHT22;9340;48.756;9.226;2023-05-29T09:13:38;21.80;99.90
18426;DHT22;9340;48.756;9.226;2023-05-29T09:16:05;21.90;99.90
18426;DHT22;9340;48.756;9.226;2023-05-29T09:18:32;22.20;99.90
18426;DHT22;9340;48.756;9.226;2023-05-29T09:20:59;22.20;99.90
18426;DHT22;9340;48.756;9.226;2023-05-29T09:23:26;22.30;99.90
18426;DHT22;9340;48.756;9.226;2023-05-29T09:25:53;22.40;99.90
18426;DHT22;9340;48.756;9.226;2023-05-29T09:28:22;22.50;99.90
18426;DHT22;9340;48.756;9.226;2023-05-29T09:30:51;22.60;99.90
18426;DHT22;9340;48.756;9.226;2023-05-29T09:33:18;22.60;99.90
18426;DHT22;9340;48.756;9.226;2023-05-29T09:35:46;22.80;99.90
18426;DHT22;9340;48.756;9.226;2023-05-29T09:38:14;22.80;99.90
18426;DHT22;9340;48.756;9.226;2023-05-29T09:40:41;22.80;99.90
18426;DHT22;9340;48.756;9.226;2023-05-29T09:43:12;23.00;99.90
18426;DHT22;9340;48.756;9.226;2023-05-29T09:45:42;23.10;99.90
18426;DHT22;9340;48.756;9.226;2023-05-29T09:48:13;22.90;99.90
18426;DHT22;9340;48.756;9.226;2023-05-29T09:50:40;22.70;99.90
18426;DHT22;9340;48.756;9.226;2023-05-29T09:53:16;22.70;99.90
18426;DHT22;9340;48.756;9.226;2023-05-29T09:55:44;22.80;99.90
18426;DHT22;9340;48.756;9.226;2023-05-29T09:58:12;23.00;99.90
18426;DHT22;9340;48.756;9.226;2023-05-29T10:00:41;23.10;99.90
18426;DHT22;9340;48.756;9.226;2023-05-29T10:03:08;23.30;99.90
18426;DHT22;9340;48.756;9.226;2023-05-29T10:05:37;23.40;99.90
18426;DHT22;9340;48.756;9.226;2023-05-29T10:08:05;23.40;99.90
18426;DHT22;9340;48.756;9.226;2023-05-29T10:10:35;23.50;99.90
18426;DHT22;9340;48.756;9.226;2023-05-29T10:13:03;23.70;99.90
18426;DHT22;9340;48.756;9.226;2023-05-29T10:15:31;23.70;99.90
18426;DHT22;9340;48.756;9.226;2023-05-29T10:18:03;23.60;99.90
18426;DHT22;9340;48.756;9.226;2023-05-29T10:20:31;23.60;99.90
18426;DHT22;9340;48.756;9.226;2023-05-29T10:23:00;23.60;99.90
18426;DHT22;9340;48.756;9.226;2023-05-29T10:25:29;23.60;99.90
18426;DHT22;9340;48.756;9.226;2023-05-29T10:27:58;23.60;99.90
18426;DHT22;9340;48.756;9.226;2023-05-29T10:30:29;23.80;99.90
18426;DHT22;9340;48.756;9.226;2023-05-29T10:33:20;23.90;99.90
18426;DHT22;9340;48.756;9.226;2023-05-29T10:35:55;24.10;99.90
18426;DHT22;9340;48.756;9.226;2023-05-29T10:38:27;24.10;99.90
18426;DHT22;9340;48.756;9.226;2023-05-29T10:40:53;24.20;99.90
18426;DHT22;9340;48.756;9.226;2023-05-29T10:43:30;24.30;99.90
18426;DHT22;9340;48.756;9.226;2023-05-29T10:45:57;24.50;99.90
18426;DHT22;9340;48.756;9.226;2023-05-29T10:48:39;24.60;99.90
18426;DHT22;9340;48.756;9.226;2023-05-29T10:51:07;24.60;99.90
18426;DHT22;9340;48.756;9.226;2023-05-29T10:53:35;24.70;99.90
18426;DHT22;9340;48.756;9.226;2023-05-29T10:56:08;24.70;99.90
18426;DHT22;9340;48.756;9.226;2023-05-29T10:58:40;24.80;99.90
18426;DHT22;9340;48.756;9.226;2023-05-29T11:01:08;24.70;99.90
18426;DHT22;9340;48.756;9.226;2023-05-29T11:03:35;24.70;99.90
18426;DHT22;9340;48.756;9.226;2023-05-29T11:06:04;24.70;99.90
18426;DHT22;9340;48.756;9.226;2023-05-29T11:08:34;24.70;99.90
18426;DHT22;9340;48.756;9.226;2023-05-29T11:11:02;24.70;99.90
18426;DHT22;9340;48.756;9.226;2023-05-29T11:13:33;24.80;99.90
18426;DHT22;9340;48.756;9.226;2023-05-29T11:16:10;24.90;99.90
18426;DHT22;9340;48.756;9.226;2023-05-29T11:18:41;24.90;99.90
18426;DHT22;9340;48.756;9.226;2023-05-29T11:21:22;25.00;99.80
18426;DHT22;9340;48.756;9.226;2023-05-29T11:23:50;25.00;99.90
18426;DHT22;9340;48.756;9.226;2023-05-29T11:26:18;25.00;99.40
18426;DHT22;9340;48.756;9.226;2023-05-29T11:28:45;25.00;99.90
18426;DHT22;9340;48.756;9.226;2023-05-29T11:31:13;24.80;99.90
18426;DHT22;9340;48.756;9.226;2023-05-29T11:33:47;24.70;99.90
18426;DHT22;9340;48.756;9.226;2023-05-29T11:36:15;24.70;99.90
18426;DHT22;9340;48.756;9.226;2023-05-29T11:38:42;24.80;99.90
18426;DHT22;9340;48.756;9.226;2023-05-29T11:41:09;24.70;99.90
18426;DHT22;9340;48.756;9.226;2023-05-29T11:43:36;24.80;99.90
18426;DHT22;9340;48.756;9.226;2023-05-29T11:46:04;24.80;99.90
18426;DHT22;9340;48.756;9.226;2023-05-29T11:48:45;25.00;99.90
18426;DHT22;9340;48.756;9.226;2023-05-29T11:51:12;25.30;99.60
18426;DHT22;9340;48.756;9.226;2023-05-29T11:53:41;25.40;95.60
18426;DHT22;9340;48.756;9.226;2023-05-29T11:56:09;25.40;95.90
18426;DHT22;9340;48.756;9.226;2023-05-29T11:58:36;25.30;95.00
18426;DHT22;9340;48.756;9.226;2023-05-29T12:01:03;25.40;97.10
18426;DHT22;9340;48.756;9.226;2023-05-29T12:03:36;25.50;95.30
18426;DHT22;9340;48.756;9.226;2023-05-29T12:06:03;25.40;96.80
18426;DHT22;9340;48.756;9.226;2023-05-29T12:08:32;25.40;96.20
18426;DHT22;9340;48.756;9.226;2023-05-29T12:11:00;25.50;98.00
18426;DHT22;9340;48.756;9.226;2023-05-29T12:13:26;25.60;94.20
18426;DHT22;9340;48.756;9.226;2023-05-29T12:15:56;25.70;94.50
18426;DHT22;9340;48.756;9.226;2023-05-29T12:18:24;25.80;93.20
18426;DHT22;9340;48.756;9.226;2023-05-29T12:20:50;25.60;94.50
18426;DHT22;9340;48.756;9.226;2023-05-29T12:23:18;25.60;94.10
18426;DHT22;9340;48.756;9.226;2023-05-29T12:25:46;25.70;94.40
18426;DHT22;9340;48.756;9.226;2023-05-29T12:28:17;25.60;93.80
18426;DHT22;9340;48.756;9.226;2023-05-29T12:30:44;25.60;93.30
18426;DHT22;9340;48.756;9.226;2023-05-29T12:33:25;25.70;93.00
18426;DHT22;9340;48.756;9.226;2023-05-29T12:35:53;25.80;93.40
18426;DHT22;9340;48.756;9.226;2023-05-29T12:38:19;25.80;93.30
18426;DHT22;9340;48.756;9.226;2023-05-29T12:40:48;25.80;93.50
18426;DHT22;9340;48.756;9.226;2023-05-29T12:43:17;25.80;92.90
18426;DHT22;9340;48.756;9.226;2023-05-29T12:45:44;25.70;93.50
18426;DHT22;9340;48.756;9.226;2023-05-29T12:48:11;25.70;94.70
18426;DHT22;9340;48.756;9.226;2023-05-29T12:50:38;25.80;94.50
18426;DHT22;9340;48.756;9.226;2023-05-29T12:53:07;25.90;92.50
18426;DHT22;9340;48.756;9.226;2023-05-29T12:55:35;25.90;92.20
18426;DHT22;9340;48.756;9.226;2023-05-29T12:58:04;26.00;93.60
18426;DHT22;9340;48.756;9.226;2023-05-29T13:00:33;26.10;91.60
18426;DHT22;9340;48.756;9.226;2023-05-29T13:03:00;26.00;91.60
18426;DHT22;9340;48.756;9.226;2023-05-29T13:05:27;25.90;91.70
18426;DHT22;9340;48.756;9.226;2023-05-29T13:07:54;25.80;90.60
18426;DHT22;9340;48.756;9.226;2023-05-29T13:10:21;25.70;90.80
18426;DHT22;9340;48.756;9.226;2023-05-29T13:12:49;25.70;92.30
18426;DHT22;9340;48.756;9.226;2023-05-29T13:15:19;25.80;91.60
18426;DHT22;9340;48.756;9.226;2023-05-29T13:17:47;25.90;91.30
18426;DHT22;9340;48.756;9.226;2023-05-29T13:20:14;25.90;90.60
18426;DHT22;9340;48.756;9.226;2023-05-29T13:22:42;26.00;91.20
18426;DHT22;9340;48.756;9.226;2023-05-29T13:25:11;26.00;91.10
18426;DHT22;9340;48.756;9.226;2023-05-29T13:27:39;26.00;91.50
18426;DHT22;9340;48.756;9.226;2023-05-29T13:30:08;26.10;90.40
18426;DHT22;9340;48.756;9.226;2023-05-29T13:32:35;26.10;90.60
18426;DHT22;9340;48.756;9.226;2023-05-29T13:35:05;26.10;90.30
18426;DHT22;9340;48.756;9.226;2023-05-29T13:37:32;26.10;90.70
18426;DHT22;9340;48.756;9.226;2023-05-29T13:39:59;26.00;91.50
18426;DHT22;9340;48.756;9.226;2023-05-29T13:42:25;26.00;90.00
18426;DHT22;9340;48.756;9.226;2023-05-29T13:44:53;26.00;90.40
18426;DHT22;9340;48.756;9.226;2023-05-29T13:47:19;26.00;90.20
18426;DHT22;9340;48.756;9.226;2023-05-29T13:49:46;26.00;89.90
18426;DHT22;9340;48.756;9.226;2023-05-29T13:52:14;26.00;90.00
18426;DHT22;9340;48.756;9.226;2023-05-29T13:54:41;25.90;88.30
18426;DHT22;9340;48.756;9.226;2023-05-29T13:57:08;25.90;88.10
18426;DHT22;9340;48.756;9.226;2023-05-29T13:59:35;25.80;87.40
18426;DHT22;9340;48.756;9.226;2023-05-29T14:02:02;25.80;90.30
18426;DHT22;9340;48.756;9.226;2023-05-29T14:04:29;25.90;88.90
18426;DHT22;9340;48.756;9.226;2023-05-29T14:06:57;26.00;88.80
18426;DHT22;9340;48.756;9.226;2023-05-29T14:09:25;26.00;86.30
18426;DHT22;9340;48.756;9.226;2023-05-29T14:11:53;26.00;86.80
18426;DHT22;9340;48.756;9.226;2023-05-29T14:14:21;26.10;88.50
18426;DHT22;9340;48.756;9.226;2023-05-29T14:16:48;26.10;88.70
18426;DHT22;9340;48.756;9.226;2023-05-29T14:19:14;26.10;90.00
18426;DHT22;9340;48.756;9.226;2023-05-29T14:21:41;26.10;87.60
18426;DHT22;9340;48.756;9.226;2023-05-29T14:24:08;26.20;88.90
18426;DHT22;9340;48.756;9.226;2023-05-29T14:26:36;26.10;88.20
18426;DHT22;9340;48.756;9.226;2023-05-29T14:29:03;26.10;86.70
18426;DHT22;9340;48.756;9.226;2023-05-29T14:31:30;26.10;88.00
18426;DHT22;9340;48.756;9.226;2023-05-29T14:33:57;26.10;87.40
18426;DHT22;9340;48.756;9.226;2023-05-29T14:36:23;26.10;90.00
18426;DHT22;9340;48.756;9.226;2023-05-29T14:38:50;26.10;89.90
18426;DHT22;9340;48.756;9.226;2023-05-29T14:41:17;26.10;88.90
18426;DHT22;9340;48.756;9.226;2023-05-29T14:43:45;26.10;89.70
18426;DHT22;9340;48.756;9.226;2023-05-29T14:46:11;26.10;88.20
18426;DHT22;9340;48.756;9.226;2023-05-29T14:48:38;26.10;88.50
18426;DHT22;9340;48.756;9.226;2023-05-29T14:51:05;26.10;90.20
18426;DHT22;9340;48.756;9.226;2023-05-29T14:53:32;26.20;90.10
18426;DHT22;9340;48.756;9.226;2023-05-29T14:55:59;26.20;87.60
18426;DHT22;9340;48.756;9.226;2023-05-29T14:58:25;26.20;87.50
18426;DHT22;9340;48.756;9.226;2023-05-29T15:00:54;26.20;87.00
18426;DHT22;9340;48.756;9.226;2023-05-29T15:03:20;26.10;85.60
18426;DHT22;9340;48.756;9.226;2023-05-29T15:05:51;26.10;89.80
18426;DHT22;9340;48.756;9.226;2023-05-29T15:08:18;26.10;89.30
18426;DHT22;9340;48.756;9.226;2023-05-29T15:10:45;26.10;89.60
18426;DHT22;9340;48.756;9.226;2023-05-29T15:13:11;26.10;87.40
18426;DHT22;9340;48.756;9.226;2023-05-29T15:15:38;26.10;86.70
18426;DHT22;9340;48.756;9.226;2023-05-29T15:18:06;26.10;87.20
18426;DHT22;9340;48.756;9.226;2023-05-29T15:20:33;26.10;87.60
18426;DHT22;9340;48.756;9.226;2023-05-29T15:22:59;26.10;88.50
18426;DHT22;9340;48.756;9.226;2023-05-29T15:25:26;26.10;89.50
18426;DHT22;9340;48.756;9.226;2023-05-29T15:27:53;26.10;90.40
18426;DHT22;9340;48.756;9.226;2023-05-29T15:30:21;26.10;89.60
18426;DHT22;9340;48.756;9.226;2023-05-29T15:32:48;26.00;89.30
18426;DHT22;9340;48.756;9.226;2023-05-29T15:35:16;26.00;90.30
18426;DHT22;9340;48.756;9.226;2023-05-29T15:37:44;26.00;89.40
18426;DHT22;9340;48.756;9.226;2023-05-29T15:40:11;25.90;90.00
18426;DHT22;9340;48.756;9.226;2023-05-29T15:42:37;26.00;89.40
18426;DHT22;9340;48.756;9.226;2023-05-29T15:45:05;25.90;90.70
18426;DHT22;9340;48.756;9.226;2023-05-29T15:47:32;25.80;91.20
18426;DHT22;9340;48.756;9.226;2023-05-29T15:49:58;25.80;92.30
18426;DHT22;9340;48.756;9.226;2023-05-29T15:52:26;25.80;91.90
18426;DHT22;9340;48.756;9.226;2023-05-29T15:54:53;25.80;91.80